CMB817 Details

Departure: RAF Mildenhall (EGUN)
Arrival: Ramstein Air Force Base (ETAR) at N/A
Notes: USTRANSCOM CONTRACT FLIGHT


Current Weather Information
EGUN 250409Z AUTO 00000KT 8000 BR CLR 13/13 A3003 RMK AO2 RAE09 SLPNO $
ETAR 250418Z AUTO 00000KT 1600 R08/1300VP1500 BR CLR 11/10 A3009 RMK AO2 VIS 1600V4400 SLP185 $